Waterford, MS (38685)

3:38 PM CST on February 01, 2015 (GMT -0600)
Bett | Change Station
CLOSE
Current Station
Personal Weather Station
Location: Coldwater, MS
Elevation: 367 ft
Nearby Weather Stations

Elev 367 ft 34.69 °N, 89.76 °W | Updated 51 seconds ago

Overcast
Overcast
58.5 °F
Feels Like 58.5 °F
N
6.0
Wind Variable Wind from West
Gusts 9.0 mph

Today
High -- | Low -- °F
--% Chance of Precip.
Yesterday
High -- | Low -- °F
Precip. -- in
6:56 AM 5:27 PM
Waxing Gibbous, 96% visible
Pressure 29.74 in
Visibility 1.0 miles
Clouds Overcast 100 ft
Dew Point 58 °F
Humidity 97%
Rainfall 0.75 in
Snow Depth Not available.
UV 1 out of 12
Pollen 2.40 out of 12
Air Quality Not available.
Flu Activity Not available.
METAR KUOX 012115Z AUTO 26012G22KT 020V030 1SM BR OVC001 13/13 A2974 RMK AO2 PWINO PNO

More Conditions Fewer Conditions

Pressure 29.74 in
Visibility 1.0 miles
Clouds Overcast 100 ft
Dew Point 58 °F
Humidity 97%
Rainfall 0.75 in
Snow Depth Not available.
UV 1 out of 12
Pollen 2.40 out of 12
Air Quality Not available.
Flu Activity Not available.
METAR KUOX 012115Z AUTO 26012G22KT 020V030 1SM BR OVC001 13/13 A2974 RMK AO2 PWINO PNO

More Conditions Fewer Conditions

10-Day Weather Forecast

Almanac

Astronomy

Feb. 01, 2015 Rise Set
Actual Time
Civil Twilight
Nautical Twilight
Astronomical Twilight
Moon
Length of Visible Light
Length of Day
Tomorrow will be .
, % of the Moon is Illuminated

Today's Extremes

State Highs State Lows

Community

WunderPhotos

Upload Photos

1,792,553 photos uploaded!

WunderBlogs® & News

Nearby

Air Quality

  Air Quality AQ Index Pollutant
Not available.

Snow Depth

Station Depth Elevation

Earthquake Activity

City Distance Mag. Time & Date
Minimum magnitude displayed is 2.5.

Coastal Water Temperatures

Place Temperature

Nearby Weather Stations